Time;durP1;ratioP1;P1;durP2;ratioP2;P2;SDS_P1;SDS_P2;PMS_P1;PMS_P2;Temp;Humidity;BMP_temperature;BMP_pressure;BME280_temperature;BME280_humidity;BME280_pressure;Samples;Min_cycle;Max_cycle;Signal;HPM_P1;HPM_P2
2022/09/25 00:01:18;;;;;;;2.05;0.98;;;20.00;63.50;;;;;;5024113;28;43701;-56
2022/09/25 00:03:46;;;;;;;0.80;0.50;;;20.00;63.50;;;;;;5024042;28;43387;-57
2022/09/25 00:06:20;;;;;;;1.45;0.80;;;20.00;63.60;;;;;;5023870;28;43471;-57
2022/09/25 00:08:48;;;;;;;0.82;0.65;;;20.00;63.60;;;;;;5024352;28;44690;-57
2022/09/25 00:11:31;;;;;;;0.60;0.57;;;19.90;63.60;;;;;;5024450;28;43827;-56
2022/09/25 00:14:00;;;;;;;1.60;0.68;;;19.90;63.60;;;;;;5024282;28;43448;-56
2022/09/25 00:16:29;;;;;;;1.38;0.55;;;19.90;63.60;;;;;;5023538;28;43598;-57
2022/09/25 00:21:44;;;;;;;0.88;0.60;;;19.90;63.60;;;;;;5023818;28;43471;-57
2022/09/25 00:24:12;;;;;;;0.93;0.57;;;19.90;63.60;;;;;;5023522;28;43407;-57
2022/09/25 00:26:41;;;;;;;0.88;0.88;;;19.90;63.60;;;;;;5023556;28;43645;-57
2022/09/25 00:29:15;;;;;;;0.47;0.47;;;19.90;63.60;;;;;;5056571;28;43807;-56
2022/09/25 00:31:42;;;;;;;0.70;0.70;;;19.90;63.60;;;;;;5024182;28;43719;-57
2022/09/25 00:34:10;;;;;;;0.88;0.50;;;19.90;63.60;;;;;;5023716;28;43433;-56
2022/09/25 00:36:38;;;;;;;0.85;0.55;;;19.90;63.60;;;;;;5023671;28;43624;-56
2022/09/25 00:39:06;;;;;;;0.60;0.40;;;19.90;63.60;;;;;;5023996;28;44761;-57
2022/09/25 00:41:34;;;;;;;0.43;0.40;;;19.90;63.60;;;;;;5017816;28;43419;-56
2022/09/25 00:44:03;;;;;;;1.45;0.65;;;19.90;63.60;;;;;;5011527;28;43506;-56
2022/09/25 00:46:35;;;;;;;1.08;0.50;;;19.90;63.60;;;;;;5023188;28;43499;-56
2022/09/25 00:49:13;;;;;;;1.00;0.57;;;19.90;63.60;;;;;;5023711;28;45096;-57
2022/09/25 00:51:51;;;;;;;0.50;0.40;;;19.80;63.60;;;;;;5009393;28;43726;-56
2022/09/25 00:54:29;;;;;;;0.97;0.50;;;19.80;63.60;;;;;;5022363;28;43407;-56
2022/09/25 00:57:00;;;;;;;0.68;0.60;;;19.80;63.60;;;;;;5023635;28;43425;-56
2022/09/25 00:59:33;;;;;;;1.35;0.77;;;19.80;63.60;;;;;;5008483;28;43872;-56
2022/09/25 01:02:01;;;;;;;0.95;0.47;;;19.80;63.60;;;;;;5022880;28;43659;-57
2022/09/25 01:04:32;;;;;;;0.73;0.70;;;19.80;63.60;;;;;;5023185;28;43452;-56
2022/09/25 01:07:00;;;;;;;1.52;0.75;;;19.80;63.60;;;;;;5023864;28;43352;-56
2022/09/25 01:09:28;;;;;;;1.23;0.50;;;19.80;63.70;;;;;;5022515;28;44701;-56
2022/09/25 01:11:55;;;;;;;0.77;0.60;;;19.80;63.60;;;;;;5023713;28;43544;-57
2022/09/25 01:14:23;;;;;;;0.63;0.40;;;19.80;63.60;;;;;;5023593;28;43408;-57
2022/09/25 01:17:09;;;;;;;1.40;0.57;;;19.80;63.70;;;;;;5055321;28;43449;-57
2022/09/25 01:20:15;;;;;;;1.40;0.47;;;19.80;63.70;;;;;;5022828;28;44713;-56
2022/09/25 01:23:11;;;;;;;0.93;0.43;;;19.70;63.60;;;;;;5023025;28;43381;-57
2022/09/25 01:25:55;;;;;;;0.52;0.50;;;19.70;63.60;;;;;;5022497;28;43447;-56
2022/09/25 01:28:22;;;;;;;1.13;0.88;;;19.70;63.70;;;;;;5022375;28;43381;-56
2022/09/25 01:30:54;;;;;;;1.13;0.65;;;19.70;63.70;;;;;;5054796;28;44674;-56
2022/09/25 01:33:34;;;;;;;1.23;0.70;;;19.70;63.70;;;;;;5023024;28;43997;-56
2022/09/25 01:36:11;;;;;;;1.05;0.47;;;19.70;63.60;;;;;;5023025;28;43442;-56
2022/09/25 01:39:04;;;;;;;0.55;0.52;;;19.70;63.70;;;;;;5014177;28;44003;-56
2022/09/25 01:41:45;;;;;;;1.58;0.70;;;19.70;63.70;;;;;;5024951;28;43792;-56
2022/09/25 01:44:22;;;;;;;0.82;0.40;;;19.70;63.70;;;;;;5022503;28;43846;-57
2022/09/25 01:46:52;;;;;;;0.98;0.63;;;19.70;63.70;;;;;;5008890;28;43449;-57
2022/09/25 01:49:46;;;;;;;0.50;0.50;;;19.70;63.80;;;;;;5023166;28;43373;-57
2022/09/25 01:52:18;;;;;;;0.65;0.50;;;19.60;63.70;;;;;;5022738;28;44919;-57
2022/09/25 01:54:53;;;;;;;1.85;1.05;;;19.60;63.70;;;;;;5022536;28;43724;-57
2022/09/25 01:57:23;;;;;;;0.70;0.40;;;19.60;63.70;;;;;;5023048;28;43396;-57
2022/09/25 02:00:04;;;;;;;0.95;0.60;;;19.60;63.70;;;;;;5022873;28;43458;-57
2022/09/25 02:02:56;;;;;;;0.75;0.60;;;19.70;63.80;;;;;;5009267;28;44788;-57
2022/09/25 02:05:32;;;;;;;1.30;0.68;;;19.60;63.70;;;;;;5021809;28;43551;-57
2022/09/25 02:08:16;;;;;;;0.73;0.50;;;19.60;63.70;;;;;;5023168;28;43450;-57
2022/09/25 02:11:01;;;;;;;0.40;0.40;;;19.60;63.80;;;;;;5022814;28;43416;-56
2022/09/25 02:13:52;;;;;;;1.30;0.50;;;19.60;63.70;;;;;;5021825;28;44650;-56
2022/09/25 02:16:34;;;;;;;0.85;0.50;;;19.60;63.80;;;;;;5008557;28;43908;-57
2022/09/25 02:22:30;;;;;;;0.50;0.45;;;19.60;63.80;;;;;;5022618;28;43411;-56
2022/09/25 02:25:10;;;;;;;0.50;0.50;;;19.60;63.80;;;;;;4999511;28;44077;-56
2022/09/25 02:27:37;;;;;;;0.98;0.50;;;19.60;63.80;;;;;;4999394;28;43471;-56
2022/09/25 02:30:05;;;;;;;0.50;0.40;;;19.60;63.80;;;;;;5013605;28;43425;-56
2022/09/25 02:32:33;;;;;;;1.05;0.45;;;19.60;63.80;;;;;;5021909;28;43542;-57
2022/09/25 02:35:00;;;;;;;0.80;0.60;;;19.60;63.80;;;;;;5021698;28;44696;-56
2022/09/25 02:37:28;;;;;;;0.57;0.55;;;19.50;63.70;;;;;;5021938;28;43369;-56
2022/09/25 02:40:00;;;;;;;0.40;0.40;;;19.50;63.70;;;;;;5022079;28;43418;-56
2022/09/25 02:42:43;;;;;;;0.70;0.68;;;19.50;63.80;;;;;;5017737;28;43423;-57
2022/09/25 02:45:41;;;;;;;0.52;0.45;;;19.60;63.80;;;;;;5022269;28;45033;-56
2022/09/25 02:48:24;;;;;;;1.20;0.50;;;19.60;63.80;;;;;;5010978;28;43633;-57
2022/09/25 02:51:27;;;;;;;0.45;0.30;;;19.50;63.80;;;;;;5022510;28;43409;-57
2022/09/25 02:54:11;;;;;;;0.75;0.40;;;19.50;63.80;;;;;;5010102;28;43459;-56
2022/09/25 02:56:46;;;;;;;0.50;0.50;;;19.50;63.80;;;;;;5015746;28;45047;-56
2022/09/25 02:59:54;;;;;;;0.50;0.50;;;19.50;63.80;;;;;;5022071;28;43447;-56
2022/09/25 03:02:22;;;;;;;0.50;0.40;;;19.50;63.80;;;;;;5023214;28;43435;-57
2022/09/25 03:04:51;;;;;;;1.40;0.40;;;19.50;63.80;;;;;;5021514;28;43494;-57
2022/09/25 03:07:19;;;;;;;0.73;0.40;;;19.50;63.80;;;;;;5006510;28;43810;-57
2022/09/25 03:09:49;;;;;;;0.68;0.50;;;19.50;63.80;;;;;;5021534;28;43773;-56
2022/09/25 03:12:16;;;;;;;0.50;0.40;;;19.40;63.70;;;;;;5021806;28;43403;-56
2022/09/25 03:14:44;;;;;;;1.60;0.60;;;19.40;63.70;;;;;;5020988;28;43449;-57
2022/09/25 03:17:13;;;;;;;0.75;0.50;;;19.50;63.80;;;;;;5021545;28;44783;-56
2022/09/25 03:19:41;;;;;;;0.45;0.45;;;19.40;63.70;;;;;;5021654;28;43359;-57
2022/09/25 03:22:09;;;;;;;1.08;0.52;;;19.40;63.70;;;;;;5022020;28;43717;-57
2022/09/25 03:24:37;;;;;;;0.52;0.30;;;19.40;63.70;;;;;;5020960;28;43461;-56
2022/09/25 03:27:04;;;;;;;1.25;0.40;;;19.40;63.70;;;;;;5021997;28;44694;-56
2022/09/25 03:29:32;;;;;;;0.57;0.38;;;19.40;63.80;;;;;;5020723;28;43381;-56
2022/09/25 03:32:00;;;;;;;0.68;0.45;;;19.40;63.80;;;;;;5022037;28;43470;-56
2022/09/25 03:34:27;;;;;;;0.65;0.50;;;19.40;63.70;;;;;;5021762;28;43467;-56
2022/09/25 03:36:55;;;;;;;0.85;0.50;;;19.40;63.70;;;;;;5020776;28;43754;-57
2022/09/25 03:39:22;;;;;;;0.30;0.25;;;19.40;63.80;;;;;;5021489;28;43364;-57
2022/09/25 03:41:50;;;;;;;0.90;0.45;;;19.40;63.70;;;;;;5021244;28;43411;-57
2022/09/25 03:44:17;;;;;;;0.50;0.50;;;19.40;63.80;;;;;;5020788;28;43468;-57
2022/09/25 03:46:44;;;;;;;1.00;0.40;;;19.40;63.70;;;;;;5021079;28;44777;-57
2022/09/25 03:49:12;;;;;;;0.73;0.40;;;19.40;63.80;;;;;;5021530;28;43805;-57
2022/09/25 03:51:41;;;;;;;0.52;0.43;;;19.40;63.70;;;;;;5022361;28;43396;-57
2022/09/25 03:54:08;;;;;;;0.82;0.50;;;19.40;63.80;;;;;;5024796;28;43492;-57
2022/09/25 03:56:36;;;;;;;0.45;0.40;;;19.40;63.80;;;;;;5021500;28;44938;-56
2022/09/25 03:59:03;;;;;;;0.60;0.40;;;19.40;64.40;;;;;;5014576;28;43462;-57
2022/09/25 04:01:31;;;;;;;0.60;0.40;;;19.30;63.70;;;;;;5024022;28;43504;-56
2022/09/25 04:04:02;;;;;;;1.20;0.63;;;19.40;63.80;;;;;;5024703;28;43421;-56
2022/09/25 04:06:29;;;;;;;0.55;0.45;;;19.40;63.80;;;;;;5023743;28;45021;-56
2022/09/25 04:08:57;;;;;;;0.95;0.50;;;19.30;63.70;;;;;;5023897;28;43780;-57
2022/09/25 04:11:24;;;;;;;0.70;0.40;;;19.30;63.80;;;;;;5024124;28;43452;-56
2022/09/25 04:13:52;;;;;;;0.63;0.50;;;19.30;63.70;;;;;;5023933;28;43420;-57
2022/09/25 04:16:19;;;;;;;1.35;0.57;;;19.30;63.80;;;;;;5024067;28;43795;-57
2022/09/25 04:18:50;;;;;;;0.75;0.40;;;19.30;63.70;;;;;;5023802;28;44117;-57
2022/09/25 04:21:17;;;;;;;1.02;0.55;;;19.30;63.70;;;;;;5024424;28;43467;-57
2022/09/25 04:26:31;;;;;;;0.68;0.47;;;19.30;63.70;;;;;;5022997;28;43800;-57
2022/09/25 04:29:00;;;;;;;0.80;0.50;;;19.30;63.80;;;;;;5024415;28;43874;-57
2022/09/25 04:31:30;;;;;;;0.50;0.30;;;19.30;63.70;;;;;;5023667;28;43390;-56
2022/09/25 04:33:58;;;;;;;0.43;0.43;;;19.30;63.80;;;;;;5023608;28;43470;-57
2022/09/25 04:36:26;;;;;;;0.45;0.35;;;19.20;63.70;;;;;;5023735;28;44720;-57
2022/09/25 04:38:53;;;;;;;0.43;0.43;;;19.30;63.80;;;;;;5024124;28;43400;-57
2022/09/25 04:41:21;;;;;;;0.30;0.30;;;19.20;63.70;;;;;;5020942;28;43477;-57
2022/09/25 04:43:48;;;;;;;0.40;0.40;;;19.20;63.70;;;;;;5009853;28;43443;-57
2022/09/25 04:46:16;;;;;;;1.20;0.50;;;19.20;63.70;;;;;;5023127;28;44701;-57
2022/09/25 04:48:49;;;;;;;0.40;0.40;;;19.20;64.40;;;;;;5023484;28;43867;-57
2022/09/25 04:51:16;;;;;;;0.38;0.38;;;19.20;63.70;;;;;;5023797;28;43410;-57
2022/09/25 04:53:44;;;;;;;0.40;0.40;;;19.20;63.70;;;;;;5023387;28;43506;-57
2022/09/25 04:56:11;;;;;;;0.77;0.50;;;19.20;63.70;;;;;;5023201;28;44871;-57
2022/09/25 04:58:49;;;;;;;0.40;0.40;;;19.20;63.80;;;;;;5023737;28;44057;-57
2022/09/25 05:01:19;;;;;;;0.43;0.40;;;19.20;63.70;;;;;;5022125;28;43419;-56
2022/09/25 05:03:48;;;;;;;0.80;0.32;;;19.20;63.70;;;;;;5021223;28;43543;-56
2022/09/25 05:06:16;;;;;;;0.82;0.50;;;19.20;63.70;;;;;;5022814;28;44983;-56
2022/09/25 05:08:48;;;;;;;0.65;0.43;;;19.20;63.70;;;;;;5022639;28;43821;-56
2022/09/25 05:11:15;;;;;;;0.50;0.40;;;19.20;63.70;;;;;;5013062;28;43453;-57
2022/09/25 05:13:46;;;;;;;0.93;0.47;;;19.20;63.70;;;;;;5023058;28;43435;-57
2022/09/25 05:16:14;;;;;;;0.33;0.30;;;19.20;63.70;;;;;;5022895;28;44704;-56
2022/09/25 05:18:42;;;;;;;0.75;0.38;;;19.20;63.70;;;;;;5022912;28;43975;-56
2022/09/25 05:21:09;;;;;;;0.85;0.30;;;19.20;63.70;;;;;;5023240;28;43392;-57
2022/09/25 05:23:36;;;;;;;0.35;0.35;;;19.20;63.70;;;;;;5021399;28;43602;-57
2022/09/25 05:26:04;;;;;;;0.50;0.30;;;19.20;63.60;;;;;;5022463;28;44055;-57
2022/09/25 05:28:32;;;;;;;0.65;0.65;;;19.20;63.60;;;;;;5022174;28;43407;-56
2022/09/25 05:31:02;;;;;;;1.13;0.30;;;19.20;63.60;;;;;;5022789;28;43998;-57
2022/09/25 05:33:34;;;;;;;0.90;0.40;;;19.20;63.60;;;;;;5022032;28;43412;-57
2022/09/25 05:36:04;;;;;;;0.93;0.63;;;19.20;63.60;;;;;;5022397;28;44716;-56
2022/09/25 05:38:33;;;;;;;1.58;0.57;;;19.20;63.60;;;;;;5022296;28;43729;-57
2022/09/25 05:41:10;;;;;;;0.57;0.57;;;19.20;63.60;;;;;;5021989;28;43527;-57
2022/09/25 05:43:39;;;;;;;0.55;0.40;;;19.20;63.60;;;;;;5021426;28;43458;-56
2022/09/25 05:46:08;;;;;;;0.35;0.30;;;19.20;63.60;;;;;;5022610;28;44677;-57
2022/09/25 05:48:36;;;;;;;0.60;0.50;;;19.20;63.60;;;;;;5022347;28;43998;-57
2022/09/25 05:51:03;;;;;;;0.40;0.40;;;19.20;63.60;;;;;;5022876;28;43487;-57
2022/09/25 05:53:31;;;;;;;0.60;0.38;;;19.20;63.60;;;;;;5022668;28;43508;-57
2022/09/25 05:56:01;;;;;;;0.47;0.30;;;19.20;63.60;;;;;;5022297;28;43786;-57
2022/09/25 05:58:30;;;;;;;0.43;0.30;;;19.20;63.60;;;;;;5021945;28;43658;-57
2022/09/25 06:01:02;;;;;;;0.30;0.30;;;19.20;63.60;;;;;;5022529;28;43401;-57
2022/09/25 06:03:30;;;;;;;0.40;0.40;;;19.10;63.50;;;;;;5021771;28;43426;-56
2022/09/25 06:05:58;;;;;;;0.30;0.30;;;19.20;63.60;;;;;;5022166;28;43811;-57
2022/09/25 06:08:29;;;;;;;0.50;0.40;;;19.10;63.60;;;;;;5022303;28;43500;-56
2022/09/25 06:10:58;;;;;;;;;;;19.10;63.50;;;;;;5023222;28;43494;-56
2022/09/25 06:13:25;;;;;;;0.70;0.40;;;19.10;63.60;;;;;;5021697;28;43447;-56
2022/09/25 06:15:53;;;;;;;0.93;0.60;;;19.10;63.70;;;;;;5021797;28;44082;-57
2022/09/25 06:18:22;;;;;;;0.85;0.40;;;19.10;63.70;;;;;;5021582;28;44116;-56
2022/09/25 06:20:50;;;;;;;0.50;0.50;;;19.10;63.70;;;;;;5022605;28;43501;-56
2022/09/25 06:23:18;;;;;;;0.40;0.40;;;19.10;63.80;;;;;;5022039;28;43419;-56
2022/09/25 06:25:45;;;;;;;0.80;0.52;;;19.10;63.80;;;;;;5021417;28;44639;-57
2022/09/25 06:28:13;;;;;;;0.73;0.30;;;19.10;63.80;;;;;;5022393;28;43775;-57
2022/09/25 06:30:40;;;;;;;0.45;0.38;;;19.10;63.80;;;;;;5022122;28;43449;-57
2022/09/25 06:33:12;;;;;;;1.30;0.35;;;19.10;63.70;;;;;;5022065;28;43508;-56
2022/09/25 06:35:47;;;;;;;0.77;0.50;;;19.10;63.80;;;;;;5021250;28;44704;-56
2022/09/25 06:38:15;;;;;;;1.08;0.60;;;19.10;63.80;;;;;;5021175;28;43711;-57
2022/09/25 06:40:43;;;;;;;0.55;0.55;;;19.10;63.80;;;;;;5021802;28;43411;-57
2022/09/25 06:43:14;;;;;;;0.50;0.40;;;19.10;63.90;;;;;;5014145;28;43574;-57
2022/09/25 06:45:42;;;;;;;0.60;0.45;;;19.10;63.90;;;;;;5017823;28;45065;-57
2022/09/25 06:48:12;;;;;;;0.60;0.60;;;19.10;63.80;;;;;;5021938;28;43391;-57
2022/09/25 06:50:43;;;;;;;0.60;0.60;;;19.10;63.90;;;;;;5022173;28;43425;-57
2022/09/25 06:53:12;;;;;;;1.65;0.30;;;19.00;63.80;;;;;;5022005;28;43380;-57
2022/09/25 06:55:40;;;;;;;2.10;0.75;;;19.00;63.80;;;;;;5020841;28;44696;-57
2022/09/25 06:58:10;;;;;;;1.30;0.40;;;19.00;63.80;;;;;;5021853;28;43526;-57
2022/09/25 07:00:38;;;;;;;0.52;0.40;;;19.00;63.70;;;;;;5020488;28;43441;-56
2022/09/25 07:05:51;;;;;;;0.60;0.50;;;19.00;63.80;;;;;;5021229;28;44842;-57
2022/09/25 07:08:19;;;;;;;0.63;0.50;;;19.00;63.80;;;;;;5019992;28;43979;-57
2022/09/25 07:10:51;;;;;;;0.90;0.50;;;19.00;63.80;;;;;;5026953;28;43404;-57
2022/09/25 07:13:23;;;;;;;0.55;0.50;;;19.00;63.90;;;;;;5021750;28;43411;-56
2022/09/25 07:15:56;;;;;;;0.43;0.38;;;19.00;63.90;;;;;;5021105;28;44685;-56
2022/09/25 07:18:25;;;;;;;0.47;0.47;;;19.00;63.90;;;;;;5021578;28;44007;-57
2022/09/25 07:20:53;;;;;;;0.30;0.30;;;19.00;63.90;;;;;;5021446;28;43391;-56
2022/09/25 07:23:21;;;;;;;0.65;0.52;;;19.00;63.90;;;;;;5021153;28;43431;-56
2022/09/25 07:25:49;;;;;;;0.45;0.43;;;19.00;64.50;;;;;;5022733;28;43779;-56
2022/09/25 07:28:18;;;;;;;0.50;0.40;;;19.00;63.90;;;;;;5024670;28;43459;-57
2022/09/25 07:30:48;;;;;;;1.70;0.50;;;19.00;63.90;;;;;;5024455;28;43373;-57
2022/09/25 07:33:15;;;;;;;1.48;0.45;;;19.00;63.90;;;;;;5024851;28;43545;-58
2022/09/25 07:35:43;;;;;;;0.93;0.60;;;19.00;64.10;;;;;;5023909;28;44646;-57
2022/09/25 07:38:10;;;;;;;1.02;1.00;;;19.00;63.90;;;;;;5023850;28;43691;-56
2022/09/25 07:40:38;;;;;;;1.80;1.70;;;19.00;64.00;;;;;;5024901;28;43384;-56
2022/09/25 07:43:06;;;;;;;1.73;1.20;;;19.00;64.10;;;;;;5020641;28;43585;-57
2022/09/25 07:45:33;;;;;;;1.55;1.30;;;19.10;64.10;;;;;;5024390;28;44651;-57
2022/09/25 07:48:02;;;;;;;1.90;1.70;;;19.10;64.10;;;;;;5024435;28;43399;-57
2022/09/25 07:50:31;;;;;;;3.97;1.42;;;19.20;64.10;;;;;;5012904;28;43454;-57
2022/09/25 07:52:58;;;;;;;1.67;1.15;;;19.30;64.00;;;;;;5024623;28;43449;-57
2022/09/25 07:55:27;;;;;;;1.02;1.02;;;19.40;64.00;;;;;;5023867;28;44786;-57
2022/09/25 07:57:57;;;;;;;3.20;1.30;;;19.50;63.90;;;;;;5024212;28;43614;-57
2022/09/25 08:00:25;;;;;;;2.20;1.17;;;19.60;63.70;;;;;;5020931;28;43537;-57
2022/09/25 08:02:57;;;;;;;1.70;1.45;;;19.60;63.60;;;;;;5021891;28;43593;-56
2022/09/25 08:05:26;;;;;;;1.75;1.25;;;19.70;63.60;;;;;;5022673;28;44177;-57
2022/09/25 08:07:54;;;;;;;2.35;1.33;;;19.80;63.50;;;;;;5023901;28;43401;-56
2022/09/25 08:10:22;;;;;;;1.75;1.33;;;19.90;63.50;;;;;;5023874;28;43481;-57
2022/09/25 08:12:49;;;;;;;1.05;1.05;;;19.90;63.40;;;;;;5023364;28;43507;-57
2022/09/25 08:15:17;;;;;;;1.80;1.00;;;20.00;63.40;;;;;;5022567;28;43805;-57
2022/09/25 08:17:44;;;;;;;3.17;1.30;;;20.10;63.30;;;;;;5022770;28;43444;-59
2022/09/25 08:20:11;;;;;;;3.20;1.13;;;20.10;63.30;;;;;;5023333;28;43393;-58
2022/09/25 08:22:39;;;;;;;2.97;1.20;;;20.20;63.30;;;;;;5023209;28;43439;-58
2022/09/25 08:25:07;;;;;;;1.50;0.93;;;20.30;63.10;;;;;;5022670;28;43801;-58
2022/09/25 08:27:39;;;;;;;1.35;1.20;;;20.30;63.10;;;;;;5022677;28;43455;-59
2022/09/25 08:30:08;;;;;;;2.05;1.08;;;20.50;63.00;;;;;;5023080;28;43411;-57
2022/09/25 08:32:36;;;;;;;1.98;0.90;;;20.50;63.10;;;;;;5022775;28;43490;-58
2022/09/25 08:35:04;;;;;;;1.80;1.00;;;20.60;63.10;;;;;;5022992;28;44668;-58
2022/09/25 08:37:32;;;;;;;1.48;0.85;;;20.70;63.00;;;;;;5021951;28;43383;-58
2022/09/25 08:40:00;;;;;;;0.80;0.80;;;20.70;62.70;;;;;;5022934;28;43391;-58
2022/09/25 08:42:35;;;;;;;1.30;1.00;;;20.80;62.50;;;;;;5023042;28;43507;-59
2022/09/25 08:50:44;;;;;;;1.60;1.30;;;21.00;62.40;;;;;;5020437;28;43961;-59
2022/09/25 08:53:21;;;;;;;2.70;1.17;;;21.10;62.20;;;;;;5022672;28;43442;-58
2022/09/25 08:58:52;;;;;;;3.65;1.00;;;21.20;61.90;;;;;;5019555;28;43978;-58
2022/09/25 09:01:24;;;;;;;2.40;0.90;;;21.30;61.80;;;;;;5020036;28;43443;-58
2022/09/25 09:04:27;;;;;;;2.95;0.85;;;21.40;61.70;;;;;;5023223;28;43466;-58
2022/09/25 09:07:08;;;;;;;1.20;0.90;;;21.50;61.50;;;;;;5013676;28;44680;-57
2022/09/25 09:10:27;;;;;;;1.85;0.80;;;21.50;61.60;;;;;;5021335;28;44164;-57
2022/09/25 09:13:10;;;;;;;1.48;0.77;;;21.60;61.50;;;;;;5022280;28;43450;-58
2022/09/25 09:16:01;;;;;;;1.65;0.77;;;21.60;61.60;;;;;;5021269;28;43470;-58
2022/09/25 09:18:31;;;;;;;0.80;0.80;;;21.60;61.20;;;;;;5020897;28;43904;-58
2022/09/25 09:21:15;;;;;;;2.08;1.23;;;21.70;61.30;;;;;;5020856;28;43421;-57
2022/09/25 09:24:03;;;;;;;3.15;0.90;;;21.70;61.20;;;;;;5022631;28;43583;-58
2022/09/25 09:26:58;;;;;;;1.75;0.63;;;21.70;61.30;;;;;;5009211;28;43440;-58
2022/09/25 09:29:32;;;;;;;2.65;0.70;;;21.70;61.00;;;;;;5019580;28;43923;-57
2022/09/25 09:32:33;;;;;;;0.85;0.70;;;21.70;61.00;;;;;;5022085;28;43700;-57
2022/09/25 09:35:04;;;;;;;;;;;21.70;61.00;;;;;;5020926;28;43388;-57
2022/09/25 09:37:49;;;;;;;0.70;0.70;;;21.70;61.30;;;;;;5022017;28;43545;-57
2022/09/25 09:40:20;;;;;;;1.40;0.70;;;21.70;61.20;;;;;;5019016;28;43606;-57
2022/09/25 09:43:02;;;;;;;;;;;21.70;61.40;;;;;;5021834;28;43650;-57
2022/09/25 09:45:55;;;;;;;1.50;0.95;;;21.70;61.20;;;;;;5019584;28;43467;-57
2022/09/25 09:48:46;;;;;;;1.65;0.60;;;21.70;61.40;;;;;;5021029;28;43420;-57
2022/09/25 09:51:35;;;;;;;2.38;0.80;;;21.70;61.40;;;;;;5011091;28;43857;-57
2022/09/25 09:54:10;;;;;;;1.00;0.57;;;21.70;61.20;;;;;;5022305;28;43776;-57
2022/09/25 09:56:41;;;;;;;2.35;0.70;;;21.60;61.20;;;;;;5019543;28;43526;-57
2022/09/25 09:59:22;;;;;;;0.90;0.57;;;21.60;61.30;;;;;;5022512;28;43526;-57
2022/09/25 10:02:19;;;;;;;0.65;0.65;;;21.60;61.30;;;;;;5021132;28;44777;-57
2022/09/25 10:04:48;;;;;;;0.52;0.50;;;21.60;61.20;;;;;;5017413;28;43439;-57
2022/09/25 10:07:21;;;;;;;2.30;0.52;;;21.50;61.20;;;;;;5021344;28;43388;-57
2022/09/25 10:09:49;;;;;;;1.02;0.50;;;21.50;61.40;;;;;;5019537;28;44028;-57
2022/09/25 10:12:32;;;;;;;0.38;0.38;;;21.60;61.20;;;;;;5020057;28;43939;-57
2022/09/25 10:15:04;;;;;;;1.38;0.55;;;21.60;61.40;;;;;;5018484;28;43984;-57
2022/09/25 10:17:36;;;;;;;0.68;0.52;;;21.60;61.50;;;;;;5020664;28;43435;-57
2022/09/25 10:20:19;;;;;;;0.90;0.60;;;21.60;61.30;;;;;;5021903;28;43540;-57
2022/09/25 10:22:51;;;;;;;1.77;0.60;;;21.70;61.40;;;;;;5050561;28;43983;-57
2022/09/25 10:25:38;;;;;;;1.20;0.70;;;21.70;61.40;;;;;;5020430;28;43470;-58
2022/09/25 10:28:28;;;;;;;1.08;0.70;;;21.70;61.30;;;;;;5018875;28;43424;-57
2022/09/25 10:30:57;;;;;;;0.63;0.60;;;21.70;61.50;;;;;;5035713;28;43634;-57
2022/09/25 10:33:28;;;;;;;1.70;1.10;;;21.70;61.20;;;;;;5020924;28;44221;-58
2022/09/25 10:35:56;;;;;;;2.78;0.95;;;21.70;61.30;;;;;;5035580;28;43526;-58
2022/09/25 10:38:36;;;;;;;0.60;0.60;;;21.80;61.30;;;;;;5020373;28;43552;-57
2022/09/25 10:41:18;;;;;;;1.33;0.60;;;21.80;61.20;;;;;;5022129;28;43417;-58
2022/09/25 10:44:01;;;;;;;0.77;0.60;;;21.90;61.00;;;;;;5020540;28;43830;-58
2022/09/25 10:52:07;;;;;;;0.85;0.43;;;21.90;60.80;;;;;;5017885;28;43520;-57
2022/09/25 10:54:36;;;;;;;0.82;0.70;;;21.90;60.90;;;;;;5019713;28;44628;-58
2022/09/25 10:57:36;;;;;;;2.28;0.60;;;22.00;60.90;;;;;;5019134;28;43463;-58
2022/09/25 11:00:23;;;;;;;1.05;0.60;;;22.00;60.80;;;;;;5021881;28;43410;-58
2022/09/25 11:02:57;;;;;;;0.93;0.50;;;22.00;60.80;;;;;;5023435;28;43550;-58
2022/09/25 11:05:30;;;;;;;1.17;0.70;;;22.00;60.80;;;;;;5022580;28;43811;-58
2022/09/25 11:08:02;;;;;;;1.67;0.73;;;22.00;60.80;;;;;;5023944;28;43444;-58
2022/09/25 11:10:35;;;;;;;0.75;0.50;;;22.00;60.80;;;;;;5024679;28;43472;-58
2022/09/25 11:13:07;;;;;;;0.50;0.50;;;22.00;60.70;;;;;;5025222;28;43560;-58
2022/09/25 11:15:37;;;;;;;1.15;0.50;;;22.00;60.70;;;;;;5023942;28;43836;-57
2022/09/25 11:18:25;;;;;;;0.57;0.45;;;22.00;60.80;;;;;;5023763;28;43426;-57
2022/09/25 11:21:04;;;;;;;0.57;0.57;;;22.00;60.80;;;;;;5039899;28;43515;-57
2022/09/25 11:23:42;;;;;;;2.45;1.08;;;22.00;60.80;;;;;;5025013;28;43406;-57
2022/09/25 11:26:17;;;;;;;1.33;0.50;;;22.00;60.80;;;;;;5024930;28;44668;-58
2022/09/25 11:28:54;;;;;;;0.60;0.60;;;22.00;60.90;;;;;;5024136;28;43426;-58
2022/09/25 11:31:31;;;;;;;1.10;0.50;;;22.00;60.90;;;;;;5057356;28;43501;-57
2022/09/25 11:34:39;;;;;;;1.67;0.38;;;22.00;61.00;;;;;;5023770;28;43607;-57
2022/09/25 11:37:42;;;;;;;0.90;0.50;;;22.00;60.90;;;;;;5021993;28;45375;-57
2022/09/25 11:43:10;;;;;;;0.65;0.35;;;22.00;61.30;;;;;;5021329;28;43416;-58
2022/09/25 11:45:58;;;;;;;1.10;0.30;;;22.10;61.20;;;;;;5022967;28;43518;-58
2022/09/25 11:48:36;;;;;;;1.00;0.65;;;22.10;61.00;;;;;;5024623;28;43620;-57
2022/09/25 11:51:34;;;;;;;0.93;0.50;;;22.10;61.00;;;;;;5023224;28;43704;-57
2022/09/25 11:54:02;;;;;;;2.60;0.68;;;22.20;61.00;;;;;;5025019;28;43454;-57
2022/09/25 11:57:18;;;;;;;0.90;0.68;;;22.20;61.00;;;;;;5013114;28;43419;-57
2022/09/25 11:59:49;;;;;;;1.15;0.60;;;22.10;61.00;;;;;;5018053;28;43928;-57
2022/09/25 12:02:35;;;;;;;0.65;0.40;;;22.10;61.10;;;;;;5015952;28;44083;-57
2022/09/25 12:05:50;;;;;;;1.33;0.43;;;22.10;61.10;;;;;;5023220;28;43414;-58
2022/09/25 12:08:56;;;;;;;1.35;0.80;;;22.10;61.10;;;;;;5000849;28;43481;-58
2022/09/25 12:11:44;;;;;;;1.60;0.60;;;22.00;61.20;;;;;;5028619;28;43778;-57
2022/09/25 12:14:25;;;;;;;0.40;0.40;;;22.00;61.20;;;;;;5021657;28;43524;-57
2022/09/25 12:17:06;;;;;;;0.93;0.40;;;22.00;61.40;;;;;;5022757;28;43467;-57
2022/09/25 12:19:52;;;;;;;0.85;0.65;;;22.00;61.50;;;;;;5023913;28;43464;-58
2022/09/25 12:22:50;;;;;;;1.20;0.50;;;21.90;61.40;;;;;;5023339;28;44664;-58
2022/09/25 12:25:26;;;;;;;1.25;0.57;;;21.90;61.50;;;;;;5022211;28;43517;-58
2022/09/25 12:28:19;;;;;;;0.40;0.40;;;21.90;61.50;;;;;;5021950;28;43438;-57
2022/09/25 12:30:54;;;;;;;0.75;0.50;;;21.90;61.60;;;;;;5019450;28;43487;-57
2022/09/25 12:33:43;;;;;;;0.52;0.30;;;21.90;61.60;;;;;;5022639;28;44690;-58
2022/09/25 12:36:27;;;;;;;1.50;0.70;;;21.90;61.60;;;;;;5019176;28;43481;-57
2022/09/25 12:38:57;;;;;;;0.70;0.50;;;21.90;61.60;;;;;;5021096;28;43506;-57
2022/09/25 12:41:32;;;;;;;0.68;0.50;;;22.00;61.70;;;;;;5023153;28;43467;-57
2022/09/25 12:44:17;;;;;;;1.35;0.60;;;22.00;61.80;;;;;;5021240;28;44044;-57
2022/09/25 12:47:22;;;;;;;1.08;0.50;;;22.00;61.70;;;;;;5022050;28;43944;-57
2022/09/25 12:50:02;;;;;;;0.68;0.50;;;22.00;61.70;;;;;;5021922;28;43548;-57
2022/09/25 12:52:38;;;;;;;1.25;0.52;;;22.00;61.70;;;;;;5021443;28;43543;-57
2022/09/25 12:55:17;;;;;;;1.45;0.40;;;22.10;61.70;;;;;;5020236;28;43671;-57
2022/09/25 12:57:53;;;;;;;0.50;0.40;;;22.10;61.70;;;;;;5022576;28;43405;-57
2022/09/25 13:00:24;;;;;;;0.57;0.40;;;22.10;61.70;;;;;;5022688;28;43456;-58
2022/09/25 13:02:51;;;;;;;;;;;22.10;61.50;;;;;;5023003;28;43547;-58
2022/09/25 13:05:36;;;;;;;0.70;0.52;;;22.10;61.50;;;;;;5021428;28;44916;-58
2022/09/25 13:08:33;;;;;;;0.85;0.57;;;22.10;61.40;;;;;;5020336;28;43479;-58
2022/09/25 13:11:07;;;;;;;1.30;0.47;;;22.00;61.50;;;;;;5023132;28;43412;-58
2022/09/25 13:13:50;;;;;;;0.85;0.50;;;22.10;61.50;;;;;;5021211;28;43522;-58
2022/09/25 13:16:17;;;;;;;1.40;0.55;;;22.10;61.40;;;;;;5021705;28;43785;-57
2022/09/25 13:19:08;;;;;;;0.70;0.30;;;22.10;61.50;;;;;;5021852;28;43435;-57
2022/09/25 13:21:46;;;;;;;0.55;0.55;;;22.10;61.50;;;;;;5022429;28;43514;-57
2022/09/25 13:24:20;;;;;;;0.98;0.70;;;22.10;61.50;;;;;;5021975;28;43531;-57
2022/09/25 13:27:02;;;;;;;1.70;0.55;;;22.10;61.50;;;;;;5021106;28;43877;-57
2022/09/25 13:29:40;;;;;;;0.30;0.30;;;22.10;61.40;;;;;;5018330;28;43519;-57
2022/09/25 13:32:18;;;;;;;0.47;0.32;;;22.20;61.50;;;;;;5021121;28;43473;-57
2022/09/25 13:34:49;;;;;;;1.10;0.50;;;22.10;61.40;;;;;;5020115;28;43426;-57
2022/09/25 13:37:17;;;;;;;0.95;0.50;;;22.20;61.40;;;;;;5054048;28;43930;-57
2022/09/25 13:42:45;;;;;;;1.75;0.65;;;22.20;61.40;;;;;;5018737;28;43441;-57
2022/09/25 13:45:31;;;;;;;0.30;0.30;;;22.20;61.40;;;;;;5021740;28;43386;-57
2022/09/25 13:48:11;;;;;;;0.75;0.40;;;22.20;61.40;;;;;;5021824;28;43982;-57
2022/09/25 13:50:44;;;;;;;0.75;0.47;;;22.20;61.30;;;;;;5018482;28;43407;-57
2022/09/25 13:53:21;;;;;;;1.83;0.90;;;22.20;61.40;;;;;;5021980;28;43595;-57
2022/09/25 13:55:54;;;;;;;2.50;1.00;;;22.20;61.40;;;;;;5021390;28;43586;-57
2022/09/25 13:58:27;;;;;;;1.30;0.68;;;22.20;61.40;;;;;;5017591;28;43831;-57